createdAt,value
2019-04-04T00:00:28.366Z,991.30
2019-04-04T00:01:28.345Z,991.29
2019-04-04T00:02:28.339Z,991.29
2019-04-04T00:03:28.282Z,991.31
2019-04-04T00:04:28.332Z,991.33
2019-04-04T00:05:28.251Z,991.35
2019-04-04T00:06:28.319Z,991.35
2019-04-04T00:07:29.042Z,991.33
2019-04-04T00:08:30.870Z,991.41
2019-04-04T00:09:28.206Z,991.37
2019-04-04T00:10:28.225Z,991.43
2019-04-04T00:11:28.185Z,991.43
2019-04-04T00:12:28.226Z,991.49
2019-04-04T00:13:28.171Z,991.50
2019-04-04T00:14:28.192Z,991.50
2019-04-04T00:15:28.162Z,991.40
2019-04-04T00:16:28.138Z,991.40
2019-04-04T00:17:28.138Z,991.44
2019-04-04T00:18:28.118Z,991.45
2019-04-04T00:19:29.925Z,991.45
2019-04-04T00:20:29.820Z,991.53
2019-04-04T00:21:28.090Z,991.55
2019-04-04T00:22:28.078Z,991.57
2019-04-04T00:23:28.057Z,991.61
2019-04-04T00:24:28.092Z,991.65
2019-04-04T00:25:28.035Z,991.64
2019-04-04T00:26:28.037Z,991.66
2019-04-04T00:27:28.012Z,991.70
2019-04-04T00:28:28.044Z,991.62
2019-04-04T00:29:27.988Z,991.61
2019-04-04T00:30:27.974Z,991.59
2019-04-04T00:31:27.982Z,991.55
2019-04-04T00:32:27.951Z,991.60
2019-04-04T00:33:27.938Z,991.61
2019-04-04T00:34:28.726Z,991.69
2019-04-04T00:35:29.078Z,991.65
2019-04-04T00:36:27.905Z,991.66
2019-04-04T00:37:27.915Z,991.64
2019-04-04T00:38:27.892Z,991.61
2019-04-04T00:39:27.897Z,991.67
2019-04-04T00:40:27.865Z,991.63
2019-04-04T00:41:27.860Z,991.65
2019-04-04T00:42:27.840Z,991.63
2019-04-04T00:43:27.867Z,991.62
2019-04-04T00:44:27.862Z,991.60
2019-04-04T00:45:28.996Z,991.61
2019-04-04T00:46:29.004Z,991.60
2019-04-04T00:47:27.794Z,991.52
2019-04-04T00:48:27.774Z,991.54
2019-04-04T00:49:27.792Z,991.49
2019-04-04T00:50:27.788Z,991.51
2019-04-04T00:51:27.766Z,991.45
2019-04-04T00:52:27.742Z,991.44
2019-04-04T00:53:27.777Z,991.41
2019-04-04T00:54:27.709Z,991.32
2019-04-04T00:55:27.720Z,991.30
2019-04-04T00:56:27.728Z,991.27
2019-04-04T00:57:27.684Z,991.16
2019-04-04T00:58:27.674Z,991.10
2019-04-04T00:59:27.672Z,990.98
2019-04-04T01:00:27.670Z,990.85
2019-04-04T01:01:27.663Z,990.82
2019-04-04T07:21:36.089Z,990.57
2019-04-04T07:22:34.976Z,990.54
2019-04-04T07:23:34.730Z,990.49
2019-04-04T07:24:34.578Z,990.43
2019-04-04T07:25:35.926Z,990.40
2019-04-04T07:26:34.555Z,990.36
2019-04-04T08:37:25.690Z,990.91
2019-04-04T08:38:25.831Z,990.94
2019-04-04T08:39:25.744Z,990.95
2019-04-04T08:40:25.801Z,990.87
2019-04-04T08:41:25.771Z,990.91
2019-04-04T08:42:25.558Z,990.81
2019-04-04T08:43:25.578Z,990.79
2019-04-04T08:44:25.689Z,990.72
2019-04-04T08:45:25.903Z,990.73
2019-04-04T08:46:25.823Z,990.63
2019-04-04T08:47:27.903Z,990.68
2019-04-04T08:48:25.993Z,990.68
2019-04-04T08:49:25.886Z,990.66
2019-04-04T08:50:25.597Z,990.63
2019-04-04T08:51:25.800Z,990.70
2019-04-04T08:52:25.562Z,990.61
2019-04-04T08:53:39.386Z,990.50
2019-04-04T08:54:26.591Z,990.48
2019-04-04T08:55:27.445Z,990.44
2019-04-04T08:56:25.608Z,990.39
2019-04-04T08:57:25.797Z,990.36
2019-04-04T08:58:25.607Z,990.32
2019-04-04T08:59:26.037Z,990.29
2019-04-04T09:00:27.383Z,990.28
2019-04-04T09:01:25.745Z,990.32
2019-04-04T09:02:25.433Z,990.38
2019-04-04T09:03:25.582Z,990.41
2019-04-04T09:04:25.580Z,990.38
2019-04-04T09:05:25.408Z,990.42
2019-04-04T09:06:25.563Z,990.36
2019-04-04T09:07:25.355Z,990.35
2019-04-04T09:08:25.253Z,990.39
2019-04-04T09:09:25.618Z,990.38
2019-04-04T09:10:25.348Z,990.38
2019-04-04T09:11:25.350Z,990.40
2019-04-04T09:12:25.282Z,990.38
2019-04-04T09:13:25.709Z,990.42
2019-04-04T09:14:25.214Z,990.46
2019-04-04T09:15:25.339Z,990.43
2019-04-04T09:16:25.178Z,990.41
2019-04-04T09:17:25.486Z,990.42
2019-04-04T09:18:25.514Z,990.46
2019-04-04T09:19:25.182Z,990.45
2019-04-04T09:20:25.098Z,990.47
2019-04-04T09:21:25.099Z,990.46
2019-04-04T09:22:25.104Z,990.53
2019-04-04T09:23:25.059Z,990.53
2019-04-04T09:24:25.087Z,990.62
2019-04-04T09:25:25.133Z,990.69
2019-04-04T09:26:25.030Z,990.68
2019-04-04T09:27:25.019Z,990.65
2019-04-04T09:28:25.011Z,990.70
2019-04-04T09:29:25.314Z,990.71
2019-04-04T09:30:24.985Z,990.73
2019-04-04T09:31:25.027Z,990.62
2019-04-04T09:32:24.983Z,990.65
2019-04-04T09:33:24.981Z,990.62
2019-04-04T09:34:24.966Z,990.58
2019-04-04T09:35:24.962Z,990.57
2019-04-04T09:36:24.997Z,990.55
2019-04-04T09:37:24.989Z,990.58
2019-04-04T09:38:24.909Z,990.59
2019-04-04T09:39:24.956Z,990.56
2019-04-04T09:40:24.908Z,990.56
2019-04-04T09:41:25.515Z,990.55
2019-04-04T09:42:24.936Z,990.50
2019-04-04T09:43:24.875Z,990.53
2019-04-04T09:44:24.973Z,990.53
2019-04-04T09:45:24.842Z,990.49
2019-04-04T09:46:25.159Z,990.46
2019-04-04T09:47:24.872Z,990.46
2019-04-04T09:48:24.813Z,990.43
2019-04-04T09:49:24.868Z,990.45
2019-04-04T09:50:24.871Z,990.42
2019-04-04T09:51:24.776Z,990.38
2019-04-04T09:52:24.834Z,990.40
2019-04-04T09:53:24.798Z,990.43
2019-04-04T09:54:24.794Z,990.46
2019-04-04T09:55:24.966Z,990.51
2019-04-04T09:56:24.703Z,990.54
2019-04-04T09:57:24.710Z,990.59
2019-04-04T09:58:24.773Z,990.64
2019-04-04T09:59:24.724Z,990.68
2019-04-04T10:00:24.774Z,990.68
2019-04-04T10:01:24.676Z,990.59
2019-04-04T10:02:24.802Z,990.58
2019-04-04T10:03:24.628Z,990.56
2019-04-04T10:04:24.764Z,990.61
2019-04-04T10:05:24.670Z,990.67
2019-04-04T10:06:24.771Z,990.73
2019-04-04T10:07:25.292Z,990.70
2019-04-04T10:08:24.645Z,990.70
2019-04-04T10:09:24.750Z,990.75
2019-04-04T10:10:24.546Z,990.70
2019-04-04T10:11:24.644Z,990.69
2019-04-04T10:12:24.703Z,990.66
2019-04-04T10:13:24.553Z,990.64
2019-04-04T10:14:24.603Z,990.63
2019-04-04T10:15:24.588Z,990.57
2019-04-04T10:16:24.637Z,990.55
2019-04-04T10:17:24.590Z,990.54
2019-04-04T10:18:24.593Z,990.55
2019-04-04T10:19:24.688Z,990.58
2019-04-04T10:20:24.508Z,990.62
2019-04-04T10:21:24.614Z,990.70
2019-04-04T10:22:24.553Z,990.73
2019-04-04T10:23:24.502Z,990.76
2019-04-04T10:24:24.376Z,990.72
2019-04-04T10:25:24.614Z,990.71
2019-04-04T10:26:24.416Z,990.66
2019-04-04T10:27:24.445Z,990.64
2019-04-04T10:28:24.409Z,990.56
2019-04-04T10:29:24.439Z,990.56
2019-04-04T10:30:24.471Z,990.51
2019-04-04T10:31:24.372Z,990.51
2019-04-04T10:32:24.385Z,990.52
2019-04-04T10:33:24.402Z,990.49
2019-04-04T10:34:24.302Z,990.54
2019-04-04T10:35:24.263Z,990.58
2019-04-04T10:36:24.406Z,990.56
2019-04-04T10:37:26.881Z,990.55
2019-04-04T10:38:24.427Z,990.49
2019-04-04T10:39:29.345Z,990.51
2019-04-04T10:40:25.295Z,990.51
2019-04-04T10:41:24.204Z,990.52
2019-04-04T10:42:24.192Z,990.45
2019-04-04T10:43:24.160Z,990.43
2019-04-04T10:44:24.239Z,990.39
2019-04-04T10:45:24.175Z,990.39
2019-04-04T10:51:04.553Z,990.39
2019-04-04T10:52:04.484Z,990.39
2019-04-04T10:53:04.448Z,990.40
2019-04-04T10:54:04.478Z,990.41
2019-04-04T10:55:04.387Z,990.34
2019-04-04T10:56:04.345Z,990.28
2019-04-04T10:57:04.399Z,990.29
2019-04-04T10:58:04.320Z,990.34
2019-04-04T10:59:04.299Z,990.37
2019-04-04T11:00:04.296Z,990.43
2019-04-04T11:01:04.296Z,990.52
2019-04-04T11:02:04.287Z,990.53
2019-04-04T11:03:04.287Z,990.64
2019-04-04T11:04:04.250Z,990.60
2019-04-04T11:05:04.255Z,990.61
2019-04-04T11:06:04.270Z,990.55
2019-04-04T11:07:04.224Z,990.56
2019-04-04T11:08:04.211Z,990.58
2019-04-04T11:09:04.200Z,990.62
2019-04-04T11:10:04.192Z,990.64
2019-04-04T11:11:13.204Z,990.62
2019-04-04T11:12:04.297Z,990.52
2019-04-04T11:13:04.246Z,990.53
2019-04-04T11:14:04.259Z,990.45
2019-04-04T11:15:04.172Z,990.47
2019-04-04T11:16:04.114Z,990.48
2019-04-04T11:17:04.162Z,990.50
2019-04-04T11:18:04.106Z,990.47
2019-04-04T11:19:15.400Z,990.51
2019-04-04T11:20:04.226Z,990.52
2019-04-04T11:21:04.290Z,990.50
2019-04-04T11:22:04.105Z,990.48
2019-04-04T11:23:04.044Z,990.43
2019-04-04T11:24:14.146Z,990.46
2019-04-04T11:25:04.299Z,990.47
2019-04-04T11:26:04.104Z,990.46
2019-04-04T11:27:04.102Z,990.44
2019-04-04T11:28:04.119Z,990.51
2019-04-04T11:29:04.084Z,990.53
2019-04-04T11:30:03.964Z,990.57
2019-04-04T11:31:04.017Z,990.59
2019-04-04T11:32:03.944Z,990.57
2019-04-04T11:33:03.941Z,990.59
2019-04-04T11:34:03.962Z,990.65
2019-04-04T11:36:25.762Z,990.61
2019-04-04T11:37:25.769Z,990.59
2019-04-04T11:38:25.782Z,990.51
2019-04-04T11:39:25.691Z,990.49
2019-04-04T11:40:25.641Z,990.45
2019-04-04T11:41:25.603Z,990.45
2019-04-04T11:42:25.587Z,990.49
2019-04-04T11:43:25.557Z,990.56
2019-04-04T11:44:25.545Z,990.57
2019-04-04T11:45:25.576Z,990.59
2019-04-04T11:46:25.509Z,990.56
2019-04-04T11:47:25.536Z,990.57
2019-04-04T11:48:25.493Z,990.52
2019-04-04T11:49:25.506Z,990.47
2019-04-04T11:50:25.470Z,990.45
2019-04-04T11:51:25.498Z,990.47
2019-04-04T11:52:37.431Z,990.50
2019-04-04T11:53:25.536Z,990.52
2019-04-04T11:54:25.584Z,990.53
2019-04-04T11:55:25.581Z,990.58
2019-04-04T11:56:25.685Z,990.49
2019-04-04T11:57:25.454Z,990.51
2019-04-04T11:58:25.434Z,990.49
2019-04-04T11:59:25.359Z,990.48
2019-04-04T12:00:25.346Z,990.48
2019-04-04T12:01:25.432Z,990.50
2019-04-04T12:02:25.328Z,990.48
2019-04-04T12:03:25.315Z,990.45
2019-04-04T12:04:25.326Z,990.45
2019-04-04T12:05:25.291Z,990.48
2019-04-04T12:06:25.277Z,990.46
2019-04-04T12:07:25.302Z,990.46
2019-04-04T12:08:25.275Z,990.51
2019-04-04T12:09:25.252Z,990.50
2019-04-04T12:10:32.921Z,990.49
2019-04-04T12:11:25.338Z,990.47
2019-04-04T12:12:25.333Z,990.48
2019-04-04T12:13:25.308Z,990.46
2019-04-04T12:14:25.299Z,990.49
2019-04-04T12:15:25.208Z,990.50
2019-04-04T12:16:25.174Z,990.49
2019-04-04T12:17:25.196Z,990.51
2019-04-04T12:18:25.155Z,990.50
2019-04-04T12:19:25.157Z,990.52
2019-04-04T12:20:32.825Z,990.52
2019-04-04T12:21:25.233Z,990.55
2019-04-04T12:22:25.229Z,990.46
2019-04-04T12:23:25.192Z,990.47
2019-04-04T12:24:25.173Z,990.45
2019-04-04T12:25:25.081Z,990.44
2019-04-04T12:26:25.075Z,990.46
2019-04-04T12:27:25.062Z,990.48
2019-04-04T12:28:25.039Z,990.50
2019-04-04T12:29:25.047Z,990.42
2019-04-04T12:30:25.037Z,990.39
2019-04-04T12:31:25.023Z,990.39
2019-04-04T12:32:25.003Z,990.39
2019-04-04T12:33:25.000Z,990.35
2019-04-04T12:34:24.983Z,990.40
2019-04-04T12:35:24.961Z,990.42
2019-04-04T12:36:25.167Z,990.41
2019-04-04T12:37:24.961Z,990.39
2019-04-04T12:38:24.969Z,990.42
2019-04-04T12:39:24.911Z,990.47
2019-04-04T12:40:24.901Z,990.45
2019-04-04T12:41:24.909Z,990.47
2019-04-04T12:42:24.875Z,990.50
2019-04-04T12:43:35.077Z,990.47
2019-04-04T12:44:24.965Z,990.47
2019-04-04T12:45:33.563Z,990.45
2019-04-04T12:46:24.940Z,990.46
2019-04-04T12:47:24.923Z,990.45
2019-04-04T12:48:24.884Z,990.48
2019-04-04T12:49:24.925Z,990.49
2019-04-04T12:50:24.801Z,990.48
2019-04-04T12:51:24.779Z,990.47
2019-04-04T12:52:24.779Z,990.42
2019-04-04T13:01:14.389Z,990.40
2019-04-04T13:02:14.423Z,990.38
2019-04-04T13:03:14.298Z,990.38
2019-04-04T13:04:14.301Z,990.40
2019-04-04T13:05:14.374Z,990.42
2019-04-04T13:07:38.526Z,990.45
2019-04-04T13:10:15.106Z,990.52
2019-04-04T13:13:07.786Z,990.55
2019-04-04T13:14:07.560Z,990.56
2019-04-04T13:15:07.714Z,990.53
2019-04-04T13:16:07.483Z,990.52
2019-04-04T13:17:07.499Z,990.53
2019-04-04T13:18:07.518Z,990.49
2019-04-04T13:19:07.466Z,990.46
2019-04-04T13:20:07.561Z,990.47
2019-04-04T13:21:07.493Z,990.46
2019-04-04T13:22:07.430Z,990.45
2019-04-04T13:23:07.528Z,990.39
2019-04-04T13:24:07.505Z,990.47
2019-04-04T13:25:07.452Z,990.40
2019-04-04T13:26:07.548Z,990.35
2019-04-04T13:27:07.557Z,990.37
2019-04-04T13:28:07.486Z,990.40
2019-04-04T13:29:07.302Z,990.36
2019-04-04T13:30:07.288Z,990.37
2019-04-04T13:31:07.267Z,990.38
2019-04-04T13:32:07.290Z,990.39
2019-04-04T13:33:07.279Z,990.42
2019-04-04T13:34:07.234Z,990.45
2019-04-04T13:35:07.235Z,990.49
2019-04-04T13:36:07.231Z,990.48
2019-04-04T13:37:07.227Z,990.57
2019-04-04T13:38:07.195Z,990.58
2019-04-04T13:39:07.206Z,990.62
2019-04-04T13:40:07.163Z,990.65
2019-04-04T13:41:07.160Z,990.65
2019-04-04T13:42:07.210Z,990.60
2019-04-04T13:43:07.186Z,990.58
2019-04-04T13:44:07.120Z,990.61
2019-04-04T13:45:07.110Z,990.64
2019-04-04T13:46:07.123Z,990.68
2019-04-04T13:47:07.150Z,990.69
2019-04-04T13:48:07.132Z,990.69
2019-04-04T13:49:07.289Z,990.72
2019-04-04T13:51:50.930Z,990.64
2019-04-04T13:52:49.058Z,990.62
2019-04-04T13:53:49.173Z,990.56
2019-04-04T13:54:49.155Z,990.50
2019-04-04T13:55:48.989Z,990.48
2019-04-04T13:56:48.960Z,990.52
2019-04-04T13:57:48.944Z,990.50
2019-04-04T13:58:49.009Z,990.52
2019-04-04T13:59:48.899Z,990.54
2019-04-04T14:00:48.895Z,990.54
2019-04-04T14:01:48.905Z,990.56
2019-04-04T14:02:48.876Z,990.55
2019-04-04T14:03:48.897Z,990.54
2019-04-04T14:04:48.859Z,990.59
2019-04-04T14:05:48.858Z,990.60
2019-04-04T14:06:48.828Z,990.62
2019-04-04T14:07:48.834Z,990.56
2019-04-04T14:08:48.831Z,990.59
2019-04-04T14:09:48.800Z,990.61
2019-04-04T14:12:15.689Z,990.64
2019-04-04T14:13:15.564Z,990.66
2019-04-04T14:14:15.702Z,990.60
2019-04-04T14:15:15.665Z,990.59
2019-04-04T14:16:15.618Z,990.54
2019-04-04T14:17:17.996Z,990.51
2019-04-04T14:18:15.502Z,990.44
2019-04-04T14:19:15.404Z,990.43
2019-04-04T14:20:23.596Z,990.43
2019-04-04T14:21:15.459Z,990.41
2019-04-04T14:23:29.267Z,990.40
2019-04-04T14:24:29.202Z,990.38
2019-04-04T14:25:38.490Z,990.39
2019-04-04T14:26:31.335Z,990.43
2019-04-04T14:27:29.223Z,990.41
2019-04-04T14:28:37.986Z,990.40
2019-04-04T14:29:29.170Z,990.43
2019-04-04T14:30:29.349Z,990.41
2019-04-04T14:32:44.112Z,990.34
2019-04-04T14:33:44.075Z,990.31
2019-04-04T14:34:44.016Z,990.30
2019-04-04T14:35:51.732Z,990.35
2019-04-04T14:36:44.032Z,990.34
2019-04-04T14:37:44.011Z,990.39
2019-04-04T14:38:44.042Z,990.37
2019-04-04T14:39:43.939Z,990.38
2019-04-04T14:40:43.872Z,990.38
2019-04-04T14:41:43.857Z,990.37
2019-04-04T14:42:43.840Z,990.37
2019-04-04T14:43:43.861Z,990.39
2019-04-04T14:44:43.825Z,990.40
2019-04-04T14:45:43.853Z,990.40
2019-04-04T14:46:45.468Z,990.40
2019-04-04T14:47:43.857Z,990.42
2019-04-04T14:48:43.810Z,990.42
2019-04-04T14:49:45.894Z,990.47
2019-04-04T14:50:43.757Z,990.47
2019-04-04T14:51:43.767Z,990.52
2019-04-04T14:52:43.783Z,990.57
2019-04-04T14:53:43.746Z,990.59
2019-04-04T14:56:17.805Z,990.63
2019-04-04T14:57:17.758Z,990.70
2019-04-04T14:58:17.638Z,990.62
2019-04-04T14:59:26.378Z,990.63
2019-04-04T15:00:28.408Z,990.68
2019-04-04T15:01:17.700Z,990.71
2019-04-04T15:02:17.672Z,990.77
2019-04-04T15:03:17.724Z,990.78
2019-04-04T15:04:17.598Z,990.78
2019-04-04T15:05:26.703Z,990.73
2019-04-04T15:06:17.635Z,990.80
2019-04-04T15:07:17.659Z,990.82
2019-04-04T15:08:17.560Z,990.84
2019-04-04T15:09:17.583Z,990.85
2019-04-04T15:10:25.760Z,990.87
2019-04-04T15:11:26.175Z,990.85
2019-04-04T15:12:17.576Z,990.87
2019-04-04T15:13:30.487Z,990.86
2019-04-04T15:14:27.114Z,990.83
2019-04-04T15:15:17.493Z,990.84
2019-04-04T15:16:26.151Z,990.82
2019-04-04T15:17:28.525Z,990.80
2019-04-04T15:18:17.480Z,990.83
2019-04-04T15:19:17.492Z,990.84
2019-04-04T15:21:31.309Z,990.89
2019-04-04T15:22:39.422Z,990.90
2019-04-04T15:23:31.251Z,990.94
2019-04-04T15:24:31.235Z,990.88
2019-04-04T15:25:31.200Z,990.89
2019-04-04T15:26:31.300Z,990.85
2019-04-04T15:27:31.169Z,990.84
2019-04-04T15:28:31.096Z,990.79
2019-04-04T15:29:31.081Z,990.79
2019-04-04T15:30:31.047Z,990.81
2019-04-04T15:31:31.039Z,990.84
2019-04-04T15:32:31.026Z,990.85
2019-04-04T15:33:31.018Z,990.79
2019-04-04T15:34:31.046Z,990.82
2019-04-04T15:35:40.947Z,990.83
2019-04-04T15:36:31.120Z,990.77
2019-04-04T15:37:31.054Z,990.74
2019-04-04T15:38:31.105Z,990.69
2019-04-04T15:39:40.046Z,990.73
2019-04-04T15:40:31.165Z,990.64
2019-04-04T15:41:41.110Z,990.71
2019-04-04T15:42:31.106Z,990.68
2019-04-04T15:43:31.009Z,990.66
2019-04-04T15:45:51.804Z,990.66
2019-04-04T15:46:51.774Z,990.67
2019-04-04T15:47:51.781Z,990.64
2019-04-04T15:48:51.710Z,990.66
2019-04-04T15:50:00.905Z,990.62
2019-04-04T15:52:08.149Z,990.70
2019-04-04T15:53:07.922Z,990.72
2019-04-04T15:54:07.908Z,990.75
2019-04-04T15:55:07.807Z,990.71
2019-04-04T15:56:07.771Z,990.79
2019-04-04T15:57:07.690Z,990.80
2019-04-04T15:58:07.652Z,990.80
2019-04-04T15:59:07.814Z,990.86
2019-04-04T16:00:07.660Z,990.88
2019-04-04T16:01:07.689Z,990.92
2019-04-04T16:02:07.654Z,990.96
2019-04-04T16:03:07.611Z,990.99
2019-04-04T16:04:07.598Z,990.99
2019-04-04T16:05:07.566Z,991.00
2019-04-04T16:06:07.600Z,991.01
2019-04-04T16:07:07.604Z,991.02
2019-04-04T16:08:07.531Z,991.00
2019-04-04T16:09:07.515Z,991.03
2019-04-04T16:10:07.514Z,990.99
2019-04-04T16:11:07.526Z,990.95
2019-04-04T16:12:07.508Z,990.97
2019-04-04T16:13:07.501Z,990.94
2019-04-04T16:14:07.487Z,990.98
2019-04-04T16:15:07.466Z,990.93
2019-04-04T16:16:07.447Z,990.94
2019-04-04T16:17:07.461Z,990.94
2019-04-04T16:18:07.425Z,990.94
2019-04-04T16:19:07.439Z,990.93
2019-04-04T16:20:07.487Z,990.92
2019-04-04T16:21:16.048Z,990.89
2019-04-04T16:24:03.310Z,990.93
2019-04-04T16:26:19.661Z,990.93
2019-04-04T16:27:19.648Z,990.91
2019-04-04T16:28:19.563Z,990.95
2019-04-04T16:29:19.571Z,990.93
2019-04-04T16:30:19.544Z,990.87
2019-04-04T16:31:19.513Z,990.81
2019-04-04T16:32:19.435Z,990.82
2019-04-04T16:33:19.444Z,990.80
2019-04-04T16:34:19.440Z,990.83
2019-04-04T16:35:19.436Z,990.87
2019-04-04T16:37:57.105Z,990.89
2019-04-04T16:38:57.140Z,990.96
2019-04-04T16:40:08.093Z,990.97
2019-04-04T16:41:00.302Z,991.01
2019-04-04T16:42:02.581Z,991.03
2019-04-04T16:42:57.918Z,991.05
2019-04-04T16:43:56.956Z,991.08
2019-04-04T16:44:56.905Z,991.07
2019-04-04T16:45:57.012Z,991.03
2019-04-04T16:46:56.943Z,991.08
2019-04-04T16:47:56.935Z,991.08
2019-04-04T16:48:56.900Z,991.10
2019-04-04T16:49:56.831Z,991.10
2019-04-04T16:50:56.885Z,991.12
2019-04-04T16:51:56.903Z,991.19
2019-04-04T16:52:56.850Z,991.21
2019-04-04T16:55:12.793Z,991.33
2019-04-04T16:56:12.737Z,991.36
2019-04-04T16:57:12.689Z,991.40
2019-04-04T16:58:12.607Z,991.47
2019-04-04T16:59:12.608Z,991.42
2019-04-04T17:00:12.576Z,991.44
2019-04-04T17:01:12.546Z,991.43
2019-04-04T17:02:12.499Z,991.46
2019-04-04T17:03:12.476Z,991.49
2019-04-04T17:04:12.476Z,991.49
2019-04-04T17:05:12.453Z,991.59
2019-04-04T17:06:12.468Z,991.63
2019-04-04T17:07:12.421Z,991.63
2019-04-04T17:08:23.859Z,991.66
2019-04-04T17:09:12.537Z,991.65
2019-04-04T17:10:12.556Z,991.72
2019-04-04T17:11:21.976Z,991.69
2019-04-04T17:12:15.147Z,991.75
2019-04-04T17:13:12.426Z,991.78
2019-04-04T17:14:21.996Z,991.83
2019-04-04T17:15:21.111Z,991.86
2019-04-04T17:16:21.415Z,991.94
2019-04-04T17:17:20.095Z,991.95
2019-04-04T17:18:12.394Z,991.92
2019-04-04T17:19:12.384Z,991.94
2019-04-04T17:20:20.959Z,991.95
2019-04-04T17:21:12.412Z,991.97
2019-04-04T17:22:12.398Z,991.98
2019-04-04T17:23:12.289Z,991.96
2019-04-04T17:24:20.326Z,992.00
2019-04-04T17:26:28.277Z,992.06
2019-04-04T17:27:28.279Z,992.09
2019-04-04T17:28:28.531Z,992.08
2019-04-04T17:29:28.259Z,992.12
2019-04-04T17:30:28.107Z,992.10
2019-04-04T17:31:28.543Z,992.11
2019-04-04T17:32:28.425Z,992.14
2019-04-04T17:33:28.053Z,992.17
2019-04-04T17:34:28.494Z,992.17
2019-04-04T17:35:36.097Z,992.19
2019-04-04T17:36:28.347Z,992.11
2019-04-04T17:37:28.102Z,992.12
2019-04-04T17:38:28.237Z,992.13
2019-04-04T17:39:28.269Z,992.13
2019-04-04T17:40:28.125Z,992.16
2019-04-04T17:42:48.931Z,992.16
2019-04-04T17:43:59.880Z,992.10
2019-04-04T17:44:49.052Z,992.11
2019-04-04T17:45:56.448Z,992.11
2019-04-04T17:46:48.805Z,992.12
2019-04-04T17:47:48.883Z,992.10
2019-04-04T17:48:48.690Z,992.10
2019-04-04T17:49:49.223Z,992.12
2019-04-04T17:50:48.670Z,992.10
2019-04-04T17:51:49.063Z,992.10
2019-04-04T17:52:49.130Z,992.15
2019-04-04T17:53:49.136Z,992.16
2019-04-04T17:54:48.753Z,992.15
2019-04-04T17:57:23.662Z,992.21
2019-04-04T17:58:23.318Z,992.21
2019-04-04T17:59:23.418Z,992.25
2019-04-04T18:00:23.327Z,992.28
2019-04-04T18:03:29.838Z,992.27
2019-04-04T18:04:29.407Z,992.25
2019-04-04T18:05:29.168Z,992.23
2019-04-04T18:06:29.270Z,992.28
2019-04-04T18:07:29.087Z,992.27
2019-04-04T18:08:29.262Z,992.26
2019-04-04T18:09:31.893Z,992.23
2019-04-04T18:10:29.192Z,992.22
2019-04-04T18:11:29.219Z,992.25
2019-04-04T18:13:45.610Z,992.20
2019-04-04T18:14:45.521Z,992.24
2019-04-04T18:15:46.184Z,992.27
2019-04-04T18:16:45.493Z,992.31
2019-04-04T18:17:45.430Z,992.32
2019-04-04T18:18:45.528Z,992.30
2019-04-04T18:19:45.542Z,992.32
2019-04-04T18:20:45.597Z,992.33
2019-04-04T18:21:45.565Z,992.35
2019-04-04T18:22:45.571Z,992.32
2019-04-04T18:23:45.375Z,992.33
2019-04-04T18:24:45.466Z,992.30
2019-04-04T18:25:45.375Z,992.28
2019-04-04T18:26:45.351Z,992.31
2019-04-04T18:27:45.384Z,992.35
2019-04-04T18:28:45.456Z,992.33
2019-04-04T18:29:45.532Z,992.33
2019-04-04T18:30:45.868Z,992.36
2019-04-04T18:31:45.319Z,992.36
2019-04-04T18:32:45.457Z,992.36
2019-04-04T18:33:45.418Z,992.39
2019-04-04T18:34:45.333Z,992.37
2019-04-04T18:35:45.750Z,992.39
2019-04-04T18:36:45.328Z,992.37
2019-04-04T18:37:45.250Z,992.38
2019-04-04T18:38:45.279Z,992.39
2019-04-04T18:39:45.223Z,992.33
2019-04-04T18:40:45.193Z,992.35
2019-04-04T18:41:45.646Z,992.37
2019-04-04T18:42:53.255Z,992.33
2019-04-04T18:43:46.542Z,992.39
2019-04-04T18:44:44.999Z,992.38
2019-04-04T18:45:45.346Z,992.42
2019-04-04T18:46:45.078Z,992.42
2019-04-04T18:47:45.606Z,992.40
2019-04-04T18:48:45.320Z,992.39
2019-04-04T18:49:45.010Z,992.35
2019-04-04T18:50:45.216Z,992.33
2019-04-04T18:51:45.163Z,992.34
2019-04-04T18:52:45.196Z,992.30
2019-04-04T18:53:45.482Z,992.25
2019-04-04T18:54:45.060Z,992.26
2019-04-04T18:55:44.998Z,992.26
2019-04-04T18:56:44.973Z,992.29
2019-04-04T18:57:45.009Z,992.23
2019-04-04T18:58:45.149Z,992.26
2019-04-04T18:59:44.985Z,992.22
2019-04-04T19:00:44.976Z,992.25
2019-04-04T19:01:45.016Z,992.24
2019-04-04T19:02:44.955Z,992.24
2019-04-04T19:03:45.015Z,992.27
2019-04-04T19:04:44.884Z,992.32
2019-04-04T19:05:44.931Z,992.31
2019-04-04T19:06:45.055Z,992.34
2019-04-04T19:07:45.080Z,992.33
2019-04-04T19:08:44.699Z,992.34
2019-04-04T19:09:44.674Z,992.33
2019-04-04T19:10:44.689Z,992.34
2019-04-04T19:11:44.646Z,992.33
2019-04-04T19:12:44.632Z,992.27
2019-04-04T19:13:44.870Z,992.24
2019-04-04T19:14:44.616Z,992.23
2019-04-04T19:15:44.624Z,992.20
2019-04-04T19:16:44.587Z,992.22
2019-04-04T19:17:44.580Z,992.16
2019-04-04T19:18:44.575Z,992.11
2019-04-04T19:19:44.553Z,992.07
2019-04-04T19:20:44.579Z,992.11
2019-04-04T19:21:44.535Z,992.02
2019-04-04T19:22:44.527Z,992.02
2019-04-04T19:23:49.535Z,992.04
2019-04-04T19:24:45.512Z,992.00
2019-04-04T19:25:44.498Z,992.06
2019-04-04T19:26:44.556Z,992.02
2019-04-04T19:27:44.521Z,992.05
2019-04-04T19:28:44.468Z,992.09
2019-04-04T19:29:44.453Z,992.11
2019-04-04T19:30:44.449Z,992.05
2019-04-04T19:31:44.427Z,992.09
2019-04-04T19:34:16.923Z,992.09
2019-04-04T19:35:16.885Z,992.12
2019-04-04T19:36:16.857Z,992.13
2019-04-04T19:37:16.864Z,992.17
2019-04-04T19:38:16.806Z,992.15
2019-04-04T19:39:16.871Z,992.18
2019-04-04T19:40:16.715Z,992.17
2019-04-04T19:41:16.758Z,992.17
2019-04-04T19:42:16.690Z,992.18
2019-04-04T19:43:18.352Z,992.17
2019-04-04T19:44:16.716Z,992.16
2019-04-04T19:45:16.667Z,992.21
2019-04-04T19:46:16.660Z,992.11
2019-04-04T19:47:16.679Z,992.13
2019-04-04T19:48:16.681Z,992.11
2019-04-04T19:49:16.617Z,992.10
2019-04-04T19:50:16.626Z,992.19
2019-04-04T19:51:16.609Z,992.17
2019-04-04T19:52:16.590Z,992.18
2019-04-04T19:53:16.585Z,992.24
2019-04-04T19:54:19.125Z,992.23
2019-04-04T19:55:16.575Z,992.30
2019-04-04T19:56:16.552Z,992.28
2019-04-04T19:57:16.987Z,992.31
2019-04-04T19:58:16.561Z,992.34
2019-04-04T19:59:16.534Z,992.34
2019-04-04T20:00:16.527Z,992.39
2019-04-04T20:01:16.490Z,992.37
2019-04-04T20:02:16.490Z,992.45
2019-04-04T20:03:16.473Z,992.46
2019-04-04T20:04:16.467Z,992.46
2019-04-04T20:05:16.475Z,992.47
2019-04-04T20:06:16.485Z,992.53
2019-04-04T20:07:16.428Z,992.57
2019-04-04T20:08:16.411Z,992.61
2019-04-04T20:09:16.433Z,992.64
2019-04-04T20:10:16.385Z,992.67
2019-04-04T20:11:16.372Z,992.72
2019-04-04T20:12:16.382Z,992.73
2019-04-04T20:13:16.414Z,992.78
2019-04-04T20:14:16.367Z,992.77
2019-04-04T20:15:16.440Z,992.78
2019-04-04T20:16:16.340Z,992.78
2019-04-04T20:17:16.339Z,992.83
2019-04-04T20:18:16.320Z,992.87
2019-04-04T20:19:16.282Z,992.87
2019-04-04T20:20:16.272Z,992.86
2019-04-04T20:21:16.285Z,992.86
2019-04-04T20:22:16.257Z,992.91
2019-04-04T20:23:16.256Z,992.90
2019-04-04T20:24:16.234Z,992.92
2019-04-04T20:25:16.213Z,992.91
2019-04-04T20:26:16.243Z,992.89
2019-04-04T20:27:16.201Z,992.88
2019-04-04T20:28:16.222Z,992.85
2019-04-04T20:29:16.169Z,992.89
2019-04-04T20:30:16.162Z,992.88
2019-04-04T20:31:16.146Z,992.89
2019-04-04T20:32:16.138Z,992.90
2019-04-04T20:33:16.167Z,992.93
2019-04-04T20:34:16.149Z,992.91
2019-04-04T20:35:16.111Z,992.93
2019-04-04T20:36:26.395Z,992.94
2019-04-04T20:37:16.182Z,992.97
2019-04-04T20:38:16.153Z,992.97
2019-04-04T20:39:16.189Z,992.97
2019-04-04T20:40:16.099Z,992.95
2019-04-04T20:41:16.634Z,992.97
2019-04-04T20:42:16.047Z,993.00